NCAR-RAP Real-Time Weather Data

Output produced by METARs form (08 May 2021  01:21 UTC)
found at http://weather.rap.ucar.edu/surface/
 
KBWI 080054Z 29005KT 10SM SCT040 BKN065 OVC110 11/09 A2988 RMK AO2 RAE13 SLP116 P0000 T01060089
KBWI 072354Z COR 29006KT 5SM -RA BR FEW032 BKN050 OVC110 11/09 A2987 RMK AO2 SLP114 P0004 60019 T01110089 10183 20111 53003
KBWI 072351Z 29006KT 5SM -RA BR FEW032 BKN050 OVC060 11/09 A2987 RMK AO2 P0004
KBWI 072254Z 30006KT 6SM -RA BR BKN050 OVC070 12/09 A2985 RMK AO2 SLP110 P0002 T01170089
KBWI 072154Z 29007KT 5SM -RA BR SCT050 OVC070 12/08 A2985 RMK AO2 SLP109 P0006 T01170083
KBWI 072054Z 25007KT 3SM -RA BR FEW027 BKN050 OVC075 11/08 A2986 RMK AO2 SLP112 P0007 60007 T01110078 53009
KBWI 072015Z 27013KT 4SM -RA BR FEW033 BKN050 OVC080 12/08 A2984 RMK AO2 P0003 T01170078 $
KBWI 071954Z 21010G15KT 7SM -RA FEW041 BKN060 OVC090 13/07 A2983 RMK AO2 RAB13 SLP103 P0000 T01330072 $
KBWI 071854Z 26009KT 10SM SCT060 BKN080 BKN200 OVC250 16/06 A2983 RMK AO2 SLP101 VIRGA OHD SHRA NW-N T01610061
KBWI 071758Z 13007KT 10SM SCT080 BKN100 BKN200 OVC250 18/03 A2983 RMK AO2 VIRGA W SHRA NW-N T01830028
KBWI 071754Z VRB03KT 10SM SCT080 BKN100 BKN200 OVC250 18/03 A2983 RMK AO2 SLP101 VIRGA W SHRA NW-N T01830033 10189 20117 58019
KBWI 071654Z 15007KT 100V210 10SM FEW040 SCT080 BKN130 OVC200 18/04 A2985 RMK AO2 SLP109 SHRA W-NW T01830044
KBWI 071554Z VRB05KT 10SM FEW041 SCT130 BKN200 BKN250 18/04 A2988 RMK AO2 SLP116 T01830039
KBWI 071454Z 10009KT 10SM FEW041 SCT130 BKN200 17/04 A2989 RMK AO2 SLP120 T01670039 56005
KBWI 071354Z VRB06KT 10SM FEW070 SCT130 BKN200 17/03 A2989 RMK AO2 SLP120 T01670033
KBWI 071254Z 09010KT 10SM FEW080 BKN250 14/03 A2990 RMK AO2 SLP124 T01440028
KBWI 071154Z 10004KT 10SM FEW065 FEW100 BKN250 12/07 A2990 RMK AO2 SLP125 T01170067 10117 20056 56001
KBWI 071054Z 00000KT 10SM FEW065 FEW100 SCT170 BKN250 09/06 A2991 RMK AO2 SLP126 ACC DSNT S AND DSNT NW T00890061
KBWI 070954Z 30003KT 10SM FEW095 SCT250 06/04 A2990 RMK AO2 SLP125 T00610044